createdAt,value
2023-02-27T00:02:20.897Z,0.75
2023-02-27T00:04:49.330Z,0.77
2023-02-27T00:07:18.443Z,0.52
2023-02-27T00:09:46.771Z,0.85
2023-02-27T00:12:15.538Z,0.65
2023-02-27T00:14:43.832Z,0.50
2023-02-27T00:17:12.073Z,0.70
2023-02-27T00:19:40.552Z,1.23
2023-02-27T00:22:08.811Z,1.30
2023-02-27T00:24:37.077Z,1.10
2023-02-27T00:27:05.316Z,1.10
2023-02-27T00:29:33.545Z,1.05
2023-02-27T00:32:01.831Z,1.70
2023-02-27T00:34:30.186Z,1.88
2023-02-27T00:36:58.423Z,1.80
2023-02-27T00:39:26.718Z,1.80
2023-02-27T00:41:54.945Z,1.60
2023-02-27T00:44:23.181Z,2.00
2023-02-27T00:46:51.505Z,1.92
2023-02-27T00:49:20.636Z,2.05
2023-02-27T00:51:48.953Z,1.73
2023-02-27T00:54:17.165Z,2.03
2023-02-27T00:56:45.370Z,1.50
2023-02-27T00:59:13.805Z,1.70
2023-02-27T01:01:42.141Z,1.90
2023-02-27T01:04:10.352Z,2.30
2023-02-27T01:06:38.622Z,2.20
2023-02-27T01:09:07.029Z,2.60
2023-02-27T01:11:35.300Z,1.55
2023-02-27T01:14:03.706Z,1.90
2023-02-27T01:16:32.301Z,1.73
2023-02-27T01:19:00.706Z,1.50
2023-02-27T01:21:29.103Z,2.00
2023-02-27T01:23:57.437Z,1.70
2023-02-27T01:26:26.534Z,1.77
2023-02-27T01:28:55.026Z,2.00
2023-02-27T01:31:23.316Z,2.10
2023-02-27T01:33:51.624Z,1.70
2023-02-27T01:36:19.864Z,1.50
2023-02-27T01:38:48.358Z,1.67
2023-02-27T01:41:16.736Z,1.38
2023-02-27T01:44:03.206Z,1.42
2023-02-27T01:46:32.941Z,1.38
2023-02-27T01:49:06.748Z,1.20
2023-02-27T01:51:39.104Z,1.40
2023-02-27T01:54:10.502Z,1.77
2023-02-27T01:56:39.656Z,1.50
2023-02-27T01:59:10.401Z,1.60
2023-02-27T02:01:39.874Z,1.42
2023-02-27T02:04:34.340Z,1.52
2023-02-27T02:07:20.413Z,1.30
2023-02-27T02:09:54.881Z,1.40
2023-02-27T02:12:26.700Z,1.35
2023-02-27T02:14:55.016Z,1.40
2023-02-27T02:17:26.223Z,1.35
2023-02-27T02:20:13.814Z,1.48
2023-02-27T02:23:07.727Z,1.48
2023-02-27T02:26:14.302Z,1.60
2023-02-27T02:29:06.235Z,1.40
2023-02-27T02:31:55.531Z,1.70
2023-02-27T02:34:40.637Z,1.40
2023-02-27T02:39:51.571Z,1.50
2023-02-27T02:42:45.666Z,1.80
2023-02-27T02:45:32.231Z,1.90
2023-02-27T02:48:17.000Z,1.67
2023-02-27T02:51:21.101Z,2.20
2023-02-27T02:53:52.866Z,2.00
2023-02-27T02:56:51.272Z,2.13
2023-02-27T02:59:42.585Z,2.08
2023-02-27T03:02:17.305Z,2.00
2023-02-27T03:04:59.181Z,1.85
2023-02-27T03:07:43.337Z,1.60
2023-02-27T03:10:32.399Z,1.90
2023-02-27T03:13:06.451Z,1.65
2023-02-27T03:15:54.271Z,1.73
2023-02-27T03:18:28.182Z,2.10
2023-02-27T03:21:01.490Z,1.85
2023-02-27T03:23:46.206Z,1.77
2023-02-27T03:26:20.076Z,1.90
2023-02-27T03:29:02.772Z,1.50
2023-02-27T03:31:39.659Z,1.80
2023-02-27T03:34:34.542Z,1.70
2023-02-27T03:37:31.105Z,1.60
2023-02-27T03:40:26.275Z,1.48
2023-02-27T03:43:17.502Z,1.50
2023-02-27T03:46:11.934Z,1.55
2023-02-27T03:48:45.350Z,2.00
2023-02-27T03:51:17.153Z,1.70
2023-02-27T03:54:03.924Z,1.83
2023-02-27T03:56:56.684Z,1.50
2023-02-27T03:59:27.125Z,1.50
2023-02-27T04:01:57.766Z,1.55
2023-02-27T04:04:28.441Z,1.33
2023-02-27T04:07:24.007Z,1.35
2023-02-27T04:10:11.080Z,1.70
2023-02-27T04:13:20.400Z,1.45
2023-02-27T04:16:01.506Z,1.65
2023-02-27T04:18:50.090Z,1.90
2023-02-27T04:21:38.011Z,1.70
2023-02-27T04:24:30.637Z,3.17
2023-02-27T04:27:16.783Z,2.78
2023-02-27T04:29:44.922Z,2.53
2023-02-27T04:32:23.335Z,2.67
2023-02-27T04:35:18.549Z,3.40
2023-02-27T04:38:19.000Z,3.13
2023-02-27T04:41:07.155Z,2.80
2023-02-27T04:43:38.448Z,2.30
2023-02-27T04:46:11.781Z,3.05
2023-02-27T04:48:54.166Z,2.55
2023-02-27T04:51:33.086Z,2.90
2023-02-27T04:54:14.928Z,2.67
2023-02-27T04:56:48.743Z,2.15
2023-02-27T04:59:29.553Z,2.33
2023-02-27T05:02:06.229Z,2.08
2023-02-27T05:04:38.340Z,2.72
2023-02-27T05:07:10.492Z,2.28
2023-02-27T05:10:00.866Z,3.30
2023-02-27T05:13:00.632Z,2.30
2023-02-27T05:15:38.127Z,2.80
2023-02-27T05:18:09.911Z,2.63
2023-02-27T05:20:47.563Z,1.98
2023-02-27T05:23:29.591Z,2.45
2023-02-27T05:26:31.800Z,2.38
2023-02-27T05:29:07.271Z,2.45
2023-02-27T05:32:04.866Z,2.63
2023-02-27T05:34:42.370Z,1.92
2023-02-27T05:37:34.617Z,2.45
2023-02-27T05:40:09.264Z,1.90
2023-02-27T05:45:19.095Z,2.30
2023-02-27T05:47:55.256Z,2.33
2023-02-27T05:50:28.887Z,2.28
2023-02-27T05:53:00.430Z,2.08
2023-02-27T05:55:51.034Z,2.72
2023-02-27T05:58:33.307Z,2.80
2023-02-27T06:01:04.464Z,2.65
2023-02-27T06:03:35.678Z,3.00
2023-02-27T06:06:07.292Z,2.55
2023-02-27T06:08:35.952Z,2.45
2023-02-27T06:11:04.238Z,2.63
2023-02-27T06:13:32.551Z,2.03
2023-02-27T06:16:01.004Z,2.40
2023-02-27T06:18:29.419Z,2.10
2023-02-27T06:20:58.327Z,2.13
2023-02-27T06:23:26.846Z,2.10
2023-02-27T06:25:55.177Z,2.10
2023-02-27T06:28:23.570Z,2.10
2023-02-27T06:30:56.356Z,1.80
2023-02-27T06:33:26.833Z,1.80
2023-02-27T06:35:55.196Z,2.55
2023-02-27T06:38:23.423Z,2.53
2023-02-27T06:40:53.125Z,2.00
2023-02-27T06:43:23.705Z,2.13
2023-02-27T06:45:55.770Z,2.17
2023-02-27T06:48:24.071Z,2.88
2023-02-27T06:50:57.147Z,2.30
2023-02-27T06:53:26.235Z,2.60
2023-02-27T06:55:54.574Z,2.60
2023-02-27T06:58:22.815Z,2.40
2023-02-27T07:00:51.141Z,2.67
2023-02-27T07:03:19.413Z,3.40
2023-02-27T07:05:47.947Z,3.10
2023-02-27T07:08:18.324Z,2.88
2023-02-27T07:10:48.022Z,3.00
2023-02-27T07:13:19.304Z,3.03
2023-02-27T07:15:47.953Z,3.95
2023-02-27T07:18:16.304Z,4.38
2023-02-27T07:20:44.504Z,3.78
2023-02-27T07:23:12.769Z,3.33
2023-02-27T07:25:41.015Z,3.30
2023-02-27T07:28:09.273Z,3.15
2023-02-27T07:30:37.483Z,3.47
2023-02-27T07:33:05.930Z,3.35
2023-02-27T07:35:34.159Z,3.35
2023-02-27T07:38:02.375Z,3.30
2023-02-27T07:40:30.697Z,3.15
2023-02-27T07:42:58.941Z,3.17
2023-02-27T07:45:27.228Z,4.25
2023-02-27T07:47:55.629Z,3.80
2023-02-27T07:50:23.834Z,3.53
2023-02-27T07:52:53.264Z,3.60
2023-02-27T07:55:21.484Z,4.15
2023-02-27T07:57:50.082Z,3.45
2023-02-27T08:00:20.049Z,3.53
2023-02-27T08:02:48.367Z,3.05
2023-02-27T08:05:16.606Z,3.80
2023-02-27T08:07:44.815Z,3.80
2023-02-27T08:10:13.886Z,3.50
2023-02-27T08:12:42.145Z,3.80
2023-02-27T08:15:10.877Z,3.80
2023-02-27T08:17:39.081Z,3.85
2023-02-27T08:20:12.566Z,3.45
2023-02-27T08:22:41.489Z,3.72
2023-02-27T08:25:12.106Z,3.60
2023-02-27T08:27:40.889Z,3.97
2023-02-27T08:30:11.294Z,3.72
2023-02-27T08:32:40.238Z,3.60
2023-02-27T08:35:08.877Z,3.95
2023-02-27T08:37:37.114Z,3.55
2023-02-27T08:40:07.966Z,3.80
2023-02-27T08:42:36.166Z,3.58
2023-02-27T08:45:05.066Z,3.35
2023-02-27T08:47:33.497Z,3.25
2023-02-27T08:50:02.001Z,3.20
2023-02-27T08:52:30.189Z,3.58
2023-02-27T08:54:58.441Z,3.15
2023-02-27T08:57:26.791Z,3.17
2023-02-27T08:59:55.038Z,3.08
2023-02-27T09:02:27.221Z,3.10
2023-02-27T09:04:55.476Z,3.00
2023-02-27T09:07:23.730Z,2.85
2023-02-27T09:09:51.926Z,2.80
2023-02-27T09:12:20.149Z,2.63
2023-02-27T09:14:48.584Z,2.40
2023-02-27T09:17:17.944Z,2.40
2023-02-27T09:19:46.269Z,2.65
2023-02-27T09:22:14.492Z,2.38
2023-02-27T09:24:42.724Z,2.45
2023-02-27T09:27:10.927Z,2.50
2023-02-27T09:29:39.267Z,2.45
2023-02-27T09:32:07.584Z,1.95
2023-02-27T09:34:36.251Z,1.90
2023-02-27T09:37:04.503Z,2.10
2023-02-27T09:39:32.788Z,2.35
2023-02-27T09:42:16.345Z,2.63
2023-02-27T09:44:53.506Z,2.70
2023-02-27T09:47:42.272Z,2.38
2023-02-27T09:50:22.972Z,2.58
2023-02-27T09:52:51.617Z,3.10
2023-02-27T09:55:23.203Z,3.25
2023-02-27T09:57:59.740Z,2.75
2023-02-27T10:00:50.850Z,3.03
2023-02-27T10:03:54.706Z,2.90
2023-02-27T10:06:31.532Z,3.00
2023-02-27T10:09:55.370Z,3.53
2023-02-27T10:12:36.698Z,3.20
2023-02-27T10:15:49.000Z,2.85
2023-02-27T10:18:28.383Z,3.22
2023-02-27T10:21:14.368Z,2.95
2023-02-27T10:24:13.581Z,3.17
2023-02-27T10:26:44.928Z,3.53
2023-02-27T10:29:32.346Z,2.83
2023-02-27T10:32:13.267Z,3.10
2023-02-27T10:34:44.928Z,3.05
2023-02-27T10:37:17.434Z,2.70
2023-02-27T10:39:58.614Z,2.70
2023-02-27T10:42:32.729Z,2.60
2023-02-27T10:45:01.046Z,2.55
2023-02-27T10:47:29.315Z,2.25
2023-02-27T10:50:01.133Z,1.85
2023-02-27T10:52:29.350Z,2.83
2023-02-27T10:55:17.551Z,2.33
2023-02-27T10:57:47.645Z,2.65
2023-02-27T11:00:53.922Z,2.33
2023-02-27T11:03:26.573Z,2.15
2023-02-27T11:06:11.322Z,2.40
2023-02-27T11:08:39.604Z,2.28
2023-02-27T11:11:13.136Z,2.75
2023-02-27T11:13:43.604Z,2.65
2023-02-27T11:16:17.528Z,2.35
2023-02-27T11:18:48.260Z,2.50
2023-02-27T11:21:28.038Z,2.55
2023-02-27T11:24:10.882Z,2.38
2023-02-27T11:26:41.809Z,2.28
2023-02-27T11:29:16.105Z,2.42
2023-02-27T11:31:57.482Z,2.20
2023-02-27T11:34:32.763Z,2.55
2023-02-27T11:37:20.087Z,2.45
2023-02-27T11:40:05.541Z,3.15
2023-02-27T11:42:36.991Z,3.05
2023-02-27T11:46:09.897Z,3.13
2023-02-27T11:48:22.001Z,2.85
2023-02-27T11:50:57.907Z,3.22
2023-02-27T11:53:42.648Z,3.05
2023-02-27T11:56:17.000Z,3.20
2023-02-27T11:58:54.190Z,3.42
2023-02-27T12:01:32.037Z,3.05
2023-02-27T12:04:17.418Z,3.40
2023-02-27T12:06:54.008Z,3.08
2023-02-27T12:09:37.075Z,2.83
2023-02-27T12:12:13.756Z,3.42
2023-02-27T12:14:52.979Z,3.63
2023-02-27T12:17:44.048Z,3.70
2023-02-27T12:20:24.838Z,3.13
2023-02-27T12:22:55.596Z,3.15
2023-02-27T12:25:32.691Z,3.00
2023-02-27T12:28:03.598Z,3.08
2023-02-27T12:30:40.044Z,3.35
2023-02-27T12:33:50.826Z,3.88
2023-02-27T12:36:19.288Z,3.30
2023-02-27T12:38:47.744Z,3.20
2023-02-27T12:41:24.257Z,3.95
2023-02-27T12:44:06.840Z,3.30
2023-02-27T12:46:56.020Z,3.05
2023-02-27T12:49:37.878Z,2.72
2023-02-27T12:52:27.784Z,2.85
2023-02-27T12:55:19.856Z,2.40
2023-02-27T12:58:25.094Z,2.13
2023-02-27T13:01:00.592Z,2.20
2023-02-27T13:03:43.557Z,1.90
2023-02-27T13:06:23.101Z,2.10
2023-02-27T13:09:09.965Z,1.60
2023-02-27T13:11:54.929Z,1.98
2023-02-27T13:14:39.017Z,2.30
2023-02-27T13:17:19.748Z,1.90
2023-02-27T13:20:10.948Z,2.38
2023-02-27T13:22:48.411Z,2.05
2023-02-27T13:25:19.035Z,2.22
2023-02-27T13:27:57.555Z,2.33
2023-02-27T13:30:40.199Z,2.38
2023-02-27T13:33:34.854Z,2.13
2023-02-27T13:36:37.142Z,2.00
2023-02-27T13:39:05.563Z,2.33
2023-02-27T13:41:39.311Z,2.10
2023-02-27T13:44:23.504Z,2.17
2023-02-27T13:46:51.779Z,2.07
2023-02-27T13:49:29.631Z,2.10
2023-02-27T13:52:05.964Z,2.42
2023-02-27T13:54:40.757Z,2.10
2023-02-27T13:59:54.667Z,2.45
2023-02-27T14:02:31.889Z,2.22
2023-02-27T14:05:03.497Z,1.80
2023-02-27T14:07:58.702Z,2.60
2023-02-27T14:10:31.329Z,2.28
2023-02-27T14:13:00.117Z,2.20
2023-02-27T14:15:35.350Z,1.88
2023-02-27T14:18:17.789Z,2.65
2023-02-27T14:20:52.746Z,2.33
2023-02-27T14:23:27.505Z,2.50
2023-02-27T14:28:32.549Z,2.05
2023-02-27T14:31:06.781Z,2.25
2023-02-27T14:33:47.629Z,1.88
2023-02-27T14:36:21.549Z,2.20
2023-02-27T14:38:54.948Z,2.33
2023-02-27T14:41:52.512Z,2.35
2023-02-27T14:44:23.708Z,2.22
2023-02-27T14:46:55.361Z,2.10
2023-02-27T14:49:28.993Z,2.30
2023-02-27T14:51:57.747Z,2.13
2023-02-27T14:54:28.588Z,2.40
2023-02-27T14:57:08.104Z,2.40
2023-02-27T14:59:45.550Z,2.35
2023-02-27T15:02:33.107Z,1.58
2023-02-27T15:05:04.555Z,2.08
2023-02-27T15:07:35.675Z,2.10
2023-02-27T15:10:09.121Z,2.45
2023-02-27T15:12:41.136Z,2.28
2023-02-27T15:15:11.906Z,1.92
2023-02-27T15:17:46.973Z,2.63
2023-02-27T15:20:31.066Z,2.03
2023-02-27T15:23:01.103Z,2.20
2023-02-27T15:25:29.260Z,2.85
2023-02-27T15:28:06.572Z,2.50
2023-02-27T15:30:35.244Z,2.33
2023-02-27T15:33:03.723Z,2.25
2023-02-27T15:35:38.106Z,2.20
2023-02-27T15:38:06.982Z,2.97
2023-02-27T15:40:37.041Z,2.30
2023-02-27T15:43:05.759Z,2.45
2023-02-27T15:45:36.920Z,2.17
2023-02-27T15:48:06.103Z,3.45
2023-02-27T15:50:44.293Z,2.42
2023-02-27T15:53:15.986Z,2.10
2023-02-27T15:55:54.524Z,2.40
2023-02-27T15:58:30.887Z,2.45
2023-02-27T16:01:07.539Z,2.60
2023-02-27T16:03:41.463Z,2.80
2023-02-27T16:06:20.639Z,2.35
2023-02-27T16:08:56.920Z,2.85
2023-02-27T16:11:34.316Z,2.10
2023-02-27T16:14:03.245Z,3.00
2023-02-27T16:16:40.282Z,2.78
2023-02-27T16:19:30.207Z,2.92
2023-02-27T16:22:20.490Z,2.25
2023-02-27T16:24:50.489Z,2.60
2023-02-27T16:27:27.807Z,2.63
2023-02-27T16:30:03.258Z,2.80
2023-02-27T16:32:37.121Z,2.88
2023-02-27T16:35:08.926Z,2.75
2023-02-27T16:37:42.222Z,2.60
2023-02-27T16:40:20.887Z,2.30
2023-02-27T16:42:49.768Z,1.40
2023-02-27T16:45:35.966Z,1.52
2023-02-27T16:48:04.580Z,1.63
2023-02-27T16:50:41.625Z,1.77
2023-02-27T16:53:10.134Z,1.83
2023-02-27T16:55:44.291Z,2.30
2023-02-27T16:58:16.641Z,2.13
2023-02-27T17:00:45.614Z,2.45
2023-02-27T17:03:15.184Z,2.35
2023-02-27T17:05:43.452Z,2.50
2023-02-27T17:08:12.651Z,2.30
2023-02-27T17:10:40.893Z,1.85
2023-02-27T17:13:09.143Z,1.80
2023-02-27T17:15:37.370Z,1.42
2023-02-27T17:18:05.598Z,1.52
2023-02-27T17:20:33.936Z,1.33
2023-02-27T17:23:02.202Z,1.70
2023-02-27T17:25:30.757Z,1.92
2023-02-27T17:27:58.964Z,1.30
2023-02-27T17:30:27.296Z,1.60
2023-02-27T17:32:56.879Z,1.48
2023-02-27T17:35:26.598Z,1.67
2023-02-27T17:37:54.838Z,1.20
2023-02-27T17:40:23.121Z,1.40
2023-02-27T17:42:51.538Z,1.60
2023-02-27T17:45:22.000Z,1.42
2023-02-27T17:47:51.014Z,1.33
2023-02-27T17:50:19.403Z,1.40
2023-02-27T17:52:47.660Z,1.52
2023-02-27T17:55:17.506Z,1.60
2023-02-27T17:57:45.786Z,2.05
2023-02-27T18:00:16.034Z,1.48
2023-02-27T18:02:47.252Z,2.10
2023-02-27T18:05:16.033Z,1.35
2023-02-27T18:07:44.522Z,1.77
2023-02-27T18:10:15.056Z,1.65
2023-02-27T18:12:43.737Z,1.95
2023-02-27T18:15:12.350Z,1.83
2023-02-27T18:17:40.608Z,1.70
2023-02-27T18:20:10.023Z,1.45
2023-02-27T18:22:38.271Z,1.90
2023-02-27T18:25:07.051Z,1.20
2023-02-27T18:27:35.329Z,1.50
2023-02-27T18:30:04.412Z,2.45
2023-02-27T18:32:32.654Z,1.17
2023-02-27T18:35:00.906Z,1.88
2023-02-27T18:37:29.141Z,1.45
2023-02-27T18:39:57.414Z,0.77
2023-02-27T18:42:25.621Z,0.88
2023-02-27T18:44:53.951Z,0.65
2023-02-27T18:47:22.255Z,0.75
2023-02-27T18:49:51.790Z,0.57
2023-02-27T18:52:20.066Z,0.50
2023-02-27T18:54:48.326Z,0.43
2023-02-27T18:57:19.838Z,0.50
2023-02-27T18:59:48.507Z,0.50
2023-02-27T19:02:20.466Z,0.30
2023-02-27T19:04:49.717Z,0.35
2023-02-27T19:07:18.581Z,0.30
2023-02-27T19:09:46.919Z,0.30
2023-02-27T19:12:15.155Z,0.20
2023-02-27T19:14:43.398Z,0.30
2023-02-27T19:17:11.686Z,0.30
2023-02-27T19:19:39.984Z,0.40
2023-02-27T19:22:08.187Z,0.50
2023-02-27T19:24:36.433Z,0.43
2023-02-27T19:27:04.693Z,0.65
2023-02-27T19:29:32.891Z,0.50
2023-02-27T19:32:02.984Z,0.40
2023-02-27T19:34:31.645Z,0.50
2023-02-27T19:36:59.895Z,0.32
2023-02-27T19:39:28.304Z,0.40
2023-02-27T19:41:57.373Z,0.40
2023-02-27T19:44:27.364Z,0.30
2023-02-27T19:46:55.630Z,0.38
2023-02-27T19:49:23.918Z,0.30
2023-02-27T19:51:52.151Z,0.40
2023-02-27T19:54:20.605Z,0.40
2023-02-27T19:56:49.259Z,0.28
2023-02-27T19:59:18.610Z,0.40
2023-02-27T20:01:46.817Z,0.28
2023-02-27T20:04:15.309Z,0.60
2023-02-27T20:06:46.057Z,0.65
2023-02-27T20:09:16.922Z,0.55
2023-02-27T20:11:46.764Z,0.57
2023-02-27T20:14:17.358Z,0.52
2023-02-27T20:16:46.174Z,0.57
2023-02-27T20:19:19.768Z,0.45
2023-02-27T20:21:48.760Z,0.57
2023-02-27T20:24:18.928Z,0.55
2023-02-27T20:26:50.286Z,0.98
2023-02-27T20:29:21.360Z,0.65
2023-02-27T20:31:52.162Z,1.48
2023-02-27T20:34:23.914Z,5.45
2023-02-27T20:36:53.031Z,1.67
2023-02-27T20:39:22.382Z,1.23
2023-02-27T20:41:51.043Z,1.98
2023-02-27T20:44:19.313Z,0.93
2023-02-27T20:46:49.421Z,0.60
2023-02-27T20:49:18.236Z,0.82
2023-02-27T20:51:46.886Z,0.82
2023-02-27T20:54:21.008Z,0.60
2023-02-27T20:56:55.191Z,0.68
2023-02-27T20:59:26.338Z,0.57
2023-02-27T21:01:55.793Z,0.75
2023-02-27T21:04:47.060Z,0.50
2023-02-27T21:07:18.571Z,1.70
2023-02-27T21:09:46.921Z,1.55
2023-02-27T21:12:15.198Z,1.10
2023-02-27T21:14:44.758Z,0.73
2023-02-27T21:17:14.590Z,1.60
2023-02-27T21:19:43.045Z,1.25
2023-02-27T21:22:12.129Z,0.80
2023-02-27T21:24:40.404Z,0.90
2023-02-27T21:27:08.730Z,0.82
2023-02-27T21:29:37.250Z,0.82
2023-02-27T21:32:10.836Z,1.10
2023-02-27T21:34:39.168Z,1.10
2023-02-27T21:37:10.775Z,0.90
2023-02-27T21:39:40.527Z,0.80
2023-02-27T21:42:08.817Z,0.70
2023-02-27T21:44:37.037Z,0.57
2023-02-27T21:47:10.791Z,0.70
2023-02-27T21:49:40.104Z,0.80
2023-02-27T21:52:08.422Z,0.70
2023-02-27T21:54:36.807Z,0.50
2023-02-27T21:57:05.535Z,0.40
2023-02-27T21:59:34.042Z,0.55
2023-02-27T22:02:03.585Z,0.63
2023-02-27T22:04:31.796Z,0.47
2023-02-27T22:07:00.166Z,0.70
2023-02-27T22:09:28.451Z,0.90
2023-02-27T22:11:56.716Z,0.77
2023-02-27T22:14:26.824Z,0.80
2023-02-27T22:16:55.074Z,0.60
2023-02-27T22:19:24.230Z,0.77
2023-02-27T22:21:52.684Z,0.45
2023-02-27T22:24:21.442Z,0.80
2023-02-27T22:26:51.175Z,0.60
2023-02-27T22:29:19.471Z,0.93
2023-02-27T22:31:47.877Z,0.73
2023-02-27T22:34:19.401Z,0.90
2023-02-27T22:36:53.306Z,1.05
2023-02-27T22:39:22.314Z,0.57
2023-02-27T22:41:51.234Z,0.70
2023-02-27T22:44:19.602Z,0.68
2023-02-27T22:46:50.934Z,0.52
2023-02-27T22:49:22.923Z,1.15
2023-02-27T22:51:52.828Z,0.90
2023-02-27T22:54:24.360Z,0.80
2023-02-27T22:56:56.336Z,0.70
2023-02-27T22:59:25.934Z,0.63
2023-02-27T23:01:54.837Z,0.82
2023-02-27T23:04:23.252Z,0.70
2023-02-27T23:06:52.829Z,0.95
2023-02-27T23:09:23.466Z,0.50
2023-02-27T23:11:55.218Z,0.90
2023-02-27T23:14:24.087Z,0.63
2023-02-27T23:16:52.496Z,0.60
2023-02-27T23:19:23.779Z,1.25
2023-02-27T23:21:52.558Z,0.80
2023-02-27T23:24:21.352Z,0.73
2023-02-27T23:26:51.955Z,0.55
2023-02-27T23:29:20.756Z,0.60
2023-02-27T23:31:49.176Z,0.80
2023-02-27T23:34:17.652Z,0.80
2023-02-27T23:36:45.875Z,1.00
2023-02-27T23:39:14.095Z,1.15
2023-02-27T23:41:42.413Z,0.70
2023-02-27T23:44:16.398Z,1.00
2023-02-27T23:46:44.641Z,1.08
2023-02-27T23:49:13.260Z,0.70
2023-02-27T23:51:41.633Z,1.10
2023-02-27T23:54:09.983Z,0.98
2023-02-27T23:56:38.360Z,1.85
2023-02-27T23:59:08.017Z,1.30
